Terminal Aerodrome Forecast
Issued by NWS

Home | Current Version | Previous Version | Text Only | Print | Product List | Glossary On
Versions: 1 2 3 4 5 6 7 8 9 10 11 12 13 14 15 16 17 18 19 20 21 22
000
FTUS43 KDLH 200400 AAA
TAFBRD
TAF AMD
KBRD 200421Z 2004/2024 16006KT 2SM BR OVC004
      TEMPO 2004/2008 1 1/2SM -FZDZSN BR OVC004
     FM201100 16005KT 2SM -FZDZSN BR OVC003
     FM201900 17006KT 4SM -FZDZSN BR OVC008=

USA.gov is the U.S. government's official web portal to all federal, state and local government web resources and services.